createdAt,value
2018-09-01T00:00:03.852Z,4.23
2018-09-01T00:02:36.446Z,4.03
2018-09-01T00:05:08.926Z,3.60
2018-09-01T00:07:41.889Z,3.83
2018-09-01T00:10:14.493Z,3.80
2018-09-01T00:12:47.319Z,4.30
2018-09-01T00:15:19.883Z,3.73
2018-09-01T00:17:52.536Z,4.00
2018-09-01T00:20:25.519Z,4.17
2018-09-01T00:22:58.198Z,4.70
2018-09-01T00:25:31.178Z,3.83
2018-09-01T00:28:03.813Z,3.67
2018-09-01T00:30:36.966Z,3.97
2018-09-01T00:33:09.396Z,4.17
2018-09-01T00:35:42.022Z,4.33
2018-09-01T00:38:20.488Z,4.30
2018-09-01T00:40:53.026Z,4.47
2018-09-01T00:43:25.671Z,4.60
2018-09-01T00:45:58.118Z,4.00
2018-09-01T00:48:33.354Z,4.13
2018-09-01T00:51:05.978Z,4.43
2018-09-01T00:53:38.472Z,4.90
2018-09-01T00:56:10.963Z,4.23
2018-09-01T00:58:43.585Z,3.80
2018-09-01T01:01:16.144Z,4.50
2018-09-01T01:03:48.726Z,3.93
2018-09-01T01:06:21.464Z,5.40
2018-09-01T01:08:53.983Z,3.90
2018-09-01T01:11:26.439Z,4.37
2018-09-01T01:13:58.818Z,3.93
2018-09-01T01:16:31.280Z,4.43
2018-09-01T01:19:03.809Z,4.20
2018-09-01T01:21:36.633Z,4.33
2018-09-01T01:24:09.131Z,4.27
2018-09-01T01:26:41.537Z,3.80
2018-09-01T01:29:14.774Z,3.80
2018-09-01T01:31:47.259Z,3.90
2018-09-01T01:34:19.798Z,4.17
2018-09-01T01:36:52.550Z,3.87
2018-09-01T01:39:25.053Z,3.80
2018-09-01T01:41:57.550Z,3.60
2018-09-01T01:44:30.032Z,4.20
2018-09-01T01:47:02.599Z,4.33
2018-09-01T01:49:35.373Z,4.27
2018-09-01T01:52:08.150Z,3.93
2018-09-01T01:54:41.108Z,3.90
2018-09-01T01:57:13.777Z,3.73
2018-09-01T01:59:46.230Z,4.43
2018-09-01T02:02:18.886Z,4.53
2018-09-01T02:04:51.806Z,4.27
2018-09-01T02:07:24.475Z,4.07
2018-09-01T02:09:57.136Z,4.20
2018-09-01T02:12:30.211Z,3.80
2018-09-01T02:15:02.684Z,4.03
2018-09-01T02:17:35.539Z,4.40
2018-09-01T02:20:08.003Z,4.30
2018-09-01T02:22:40.701Z,3.80
2018-09-01T02:25:13.214Z,3.80
2018-09-01T02:27:45.944Z,4.13
2018-09-01T02:30:19.074Z,4.30
2018-09-01T02:32:51.939Z,3.87
2018-09-01T02:35:24.555Z,3.53
2018-09-01T02:37:57.005Z,4.10
2018-09-01T02:40:29.470Z,4.40
2018-09-01T02:43:01.982Z,3.60
2018-09-01T02:45:34.446Z,3.73
2018-09-01T02:48:06.920Z,4.10
2018-09-01T02:50:39.692Z,4.10
2018-09-01T02:53:12.582Z,4.83
2018-09-01T02:55:44.991Z,3.97
2018-09-01T02:58:17.419Z,4.17
2018-09-01T03:00:55.456Z,4.40
2018-09-01T03:03:27.894Z,4.00
2018-09-01T03:06:00.349Z,4.17
2018-09-01T03:08:32.879Z,3.87
2018-09-01T03:11:05.424Z,3.77
2018-09-01T03:13:38.223Z,4.77
2018-09-01T03:16:10.720Z,4.20
2018-09-01T03:18:43.197Z,4.33
2018-09-01T03:21:15.655Z,4.33
2018-09-01T03:23:48.053Z,4.17
2018-09-01T03:26:20.490Z,4.20
2018-09-01T03:28:52.998Z,3.77
2018-09-01T03:31:25.521Z,4.27
2018-09-01T03:33:57.953Z,4.30
2018-09-01T03:36:30.360Z,4.47
2018-09-01T03:39:04.580Z,4.93
2018-09-01T03:41:37.449Z,4.60
2018-09-01T03:44:09.906Z,4.50
2018-09-01T03:46:42.338Z,4.37
2018-09-01T03:49:14.823Z,4.30
2018-09-01T03:51:47.331Z,4.57
2018-09-01T03:54:19.784Z,3.90
2018-09-01T03:56:52.249Z,4.70
2018-09-01T03:59:24.779Z,5.07
2018-09-01T04:01:57.244Z,4.27
2018-09-01T04:04:29.677Z,4.23
2018-09-01T04:07:02.081Z,4.43
2018-09-01T04:09:34.525Z,4.67
2018-09-01T04:12:07.022Z,4.03
2018-09-01T04:14:39.433Z,4.50
2018-09-01T04:17:11.883Z,4.60
2018-09-01T04:19:44.752Z,4.80
2018-09-01T04:22:17.305Z,5.00
2018-09-01T04:24:49.810Z,4.43
2018-09-01T04:27:22.269Z,4.40
2018-09-01T04:29:54.739Z,5.00
2018-09-01T04:32:27.576Z,4.83
2018-09-01T04:35:02.471Z,4.60
2018-09-01T04:37:35.386Z,4.67
2018-09-01T04:40:08.315Z,4.53
2018-09-01T04:42:41.220Z,4.80
2018-09-01T04:45:13.947Z,4.60
2018-09-01T04:47:46.715Z,4.50
2018-09-01T04:50:19.467Z,4.43
2018-09-01T04:52:53.012Z,4.47
2018-09-01T04:55:26.058Z,4.97
2018-09-01T04:57:59.176Z,5.07
2018-09-01T05:00:32.019Z,4.80
2018-09-01T05:03:04.909Z,4.97
2018-09-01T05:05:37.547Z,4.57
2018-09-01T05:08:10.527Z,4.93
2018-09-01T05:10:42.973Z,5.40
2018-09-01T05:13:15.477Z,5.13
2018-09-01T05:15:47.945Z,5.33
2018-09-01T05:18:20.412Z,5.60
2018-09-01T05:20:52.807Z,5.47
2018-09-01T05:23:25.399Z,5.00
2018-09-01T05:25:57.818Z,5.40
2018-09-01T05:28:30.298Z,5.57
2018-09-01T05:31:02.854Z,5.50
2018-09-01T05:33:37.202Z,5.27
2018-09-01T05:36:09.716Z,5.50
2018-09-01T05:38:42.183Z,5.57
2018-09-01T05:41:14.599Z,5.63
2018-09-01T05:43:47.216Z,5.40
2018-09-01T05:46:19.591Z,6.73
2018-09-01T05:48:51.972Z,5.97
2018-09-01T05:51:24.475Z,6.00
2018-09-01T05:53:57.441Z,5.50
2018-09-01T05:56:30.036Z,6.00
2018-09-01T05:59:02.560Z,6.30
2018-09-01T06:01:35.048Z,5.93
2018-09-01T06:04:07.537Z,5.37
2018-09-01T06:06:40.009Z,5.93
2018-09-01T06:09:12.827Z,6.27
2018-09-01T06:11:45.786Z,6.23
2018-09-01T06:14:18.579Z,6.20
2018-09-01T06:16:51.050Z,6.53
2018-09-01T06:19:23.841Z,6.33
2018-09-01T06:21:56.229Z,6.57
2018-09-01T06:24:28.687Z,6.57
2018-09-01T06:27:06.058Z,6.37
2018-09-01T06:29:39.404Z,7.20
2018-09-01T06:32:11.863Z,6.87
2018-09-01T06:34:44.439Z,6.87
2018-09-01T06:37:17.483Z,6.40
2018-09-01T06:39:50.362Z,6.50
2018-09-01T06:42:23.659Z,5.70
2018-09-01T06:44:56.144Z,5.93
2018-09-01T06:47:28.653Z,5.50
2018-09-01T06:50:01.166Z,5.60
2018-09-01T06:52:33.715Z,5.77
2018-09-01T06:55:06.644Z,5.40
2018-09-01T06:57:39.121Z,5.70
2018-09-01T07:00:11.607Z,5.60
2018-09-01T07:02:44.163Z,5.93
2018-09-01T07:05:18.339Z,6.00
2018-09-01T07:07:50.897Z,6.07
2018-09-01T07:10:23.472Z,5.80
2018-09-01T07:12:55.868Z,5.63
2018-09-01T07:15:28.364Z,5.57
2018-09-01T07:18:00.754Z,5.57
2018-09-01T07:20:33.127Z,5.63
2018-09-01T07:23:05.500Z,5.53
2018-09-01T07:25:38.054Z,5.37
2018-09-01T07:28:10.455Z,4.97
2018-09-01T07:30:43.157Z,5.10
2018-09-01T07:33:16.284Z,5.97
2018-09-01T07:35:49.898Z,5.73
2018-09-01T07:38:22.259Z,5.87
2018-09-01T07:40:54.706Z,5.60
2018-09-01T07:43:27.250Z,5.60
2018-09-01T07:46:02.011Z,5.13
2018-09-01T07:48:36.203Z,5.23
2018-09-01T07:51:08.666Z,5.30
2018-09-01T07:53:44.365Z,5.10
2018-09-01T07:56:19.061Z,4.57
2018-09-01T07:58:51.752Z,5.43
2018-09-01T08:01:24.197Z,4.67
2018-09-01T08:03:56.625Z,4.80
2018-09-01T08:06:29.094Z,4.57
2018-09-01T08:09:02.355Z,4.63
2018-09-01T08:11:34.740Z,5.03
2018-09-01T08:14:09.036Z,4.13
2018-09-01T08:16:42.416Z,4.43
2018-09-01T08:19:15.251Z,4.67
2018-09-01T08:21:48.199Z,4.20
2018-09-01T08:24:20.677Z,4.27
2018-09-01T08:26:55.446Z,4.03
2018-09-01T08:29:29.940Z,4.53
2018-09-01T08:32:02.509Z,4.80
2018-09-01T08:34:39.989Z,4.73
2018-09-01T08:37:12.950Z,4.30
2018-09-01T08:39:45.572Z,4.37
2018-09-01T08:42:18.007Z,3.60
2018-09-01T08:44:50.486Z,3.63
2018-09-01T08:47:22.895Z,3.90
2018-09-01T08:49:55.333Z,3.33
2018-09-01T08:52:28.618Z,4.33
2018-09-01T08:55:01.099Z,4.10
2018-09-01T08:57:33.562Z,3.60
2018-09-01T09:00:07.003Z,3.73
2018-09-01T09:02:39.439Z,4.43
2018-09-01T09:05:12.147Z,4.33
2018-09-01T09:07:44.588Z,3.90
2018-09-01T09:10:17.394Z,4.40
2018-09-01T09:12:49.839Z,4.57
2018-09-01T09:15:23.774Z,4.50
2018-09-01T09:17:58.680Z,3.70
2018-09-01T09:20:35.920Z,4.30
2018-09-01T09:23:09.965Z,4.13
2018-09-01T09:25:44.065Z,3.83
2018-09-01T09:28:19.337Z,3.80
2018-09-01T09:30:53.421Z,4.20
2018-09-01T09:33:27.415Z,3.43
2018-09-01T09:36:02.603Z,4.47
2018-09-01T09:38:38.404Z,4.23
2018-09-01T09:41:14.378Z,4.00
2018-09-01T09:43:47.191Z,4.63
2018-09-01T09:46:19.863Z,3.63
2018-09-01T09:48:52.278Z,4.07
2018-09-01T09:51:24.806Z,4.80
2018-09-01T09:53:57.188Z,3.63
2018-09-01T09:56:29.601Z,4.33
2018-09-01T09:59:03.051Z,4.40
2018-09-01T10:01:38.950Z,4.13
2018-09-01T10:04:11.982Z,3.93
2018-09-01T10:06:44.423Z,4.10
2018-09-01T10:09:16.793Z,4.53
2018-09-01T10:11:49.235Z,4.40
2018-09-01T10:14:21.664Z,4.70
2018-09-01T10:16:54.074Z,4.20
2018-09-01T10:19:27.214Z,4.20
2018-09-01T10:21:59.944Z,4.13
2018-09-01T10:24:32.814Z,3.80
2018-09-01T10:27:05.327Z,4.10
2018-09-01T10:29:37.989Z,3.87
2018-09-01T10:32:11.234Z,3.73
2018-09-01T10:34:43.785Z,4.33
2018-09-01T10:37:16.493Z,3.70
2018-09-01T10:39:49.026Z,4.10
2018-09-01T10:42:21.911Z,4.13
2018-09-01T10:44:54.373Z,4.37
2018-09-01T10:47:27.232Z,4.17
2018-09-01T10:49:59.853Z,3.70
2018-09-01T10:52:32.678Z,3.90
2018-09-01T10:55:05.994Z,3.90
2018-09-01T10:57:38.579Z,4.70
2018-09-01T11:00:11.336Z,3.87
2018-09-01T11:02:44.243Z,4.00
2018-09-01T11:05:16.926Z,3.43
2018-09-01T11:07:49.754Z,4.30
2018-09-01T11:10:22.216Z,4.13
2018-09-01T11:12:55.109Z,4.17
2018-09-01T11:15:27.806Z,4.73
2018-09-01T11:18:00.546Z,3.47
2018-09-01T11:20:33.092Z,3.90
2018-09-01T11:23:05.654Z,3.70
2018-09-01T11:25:38.429Z,4.17
2018-09-01T11:28:10.947Z,3.03
2018-09-01T11:30:43.850Z,3.90
2018-09-01T11:33:16.756Z,3.43
2018-09-01T11:35:49.380Z,4.20
2018-09-01T11:38:21.893Z,4.20
2018-09-01T11:40:54.532Z,3.80
2018-09-01T11:43:27.094Z,3.53
2018-09-01T11:45:59.808Z,3.43
2018-09-01T11:48:32.636Z,3.80
2018-09-01T11:51:05.359Z,4.07
2018-09-01T11:53:37.920Z,4.10
2018-09-01T11:56:10.377Z,4.00
2018-09-01T11:58:42.995Z,3.87
2018-09-01T12:01:15.528Z,3.90
2018-09-01T12:03:47.977Z,3.73
2018-09-01T12:06:20.495Z,4.20
2018-09-01T12:08:52.987Z,4.47
2018-09-01T12:11:25.374Z,4.47
2018-09-01T12:13:57.893Z,3.93
2018-09-01T12:16:30.331Z,4.30
2018-09-01T12:19:02.815Z,4.37
2018-09-01T12:21:35.287Z,4.40
2018-09-01T12:24:08.120Z,3.67
2018-09-01T12:26:41.230Z,4.00
2018-09-01T12:29:14.331Z,4.03
2018-09-01T12:31:47.219Z,4.20
2018-09-01T12:34:20.860Z,3.67
2018-09-01T12:36:53.802Z,3.47
2018-09-01T12:39:27.344Z,4.13
2018-09-01T12:42:00.047Z,4.33
2018-09-01T12:44:32.777Z,3.83
2018-09-01T12:47:05.428Z,4.37
2018-09-01T12:49:38.029Z,4.70
2018-09-01T12:52:10.522Z,3.97
2018-09-01T12:54:43.157Z,4.10
2018-09-01T12:57:15.594Z,3.53
2018-09-01T12:59:48.084Z,4.23
2018-09-01T13:02:25.408Z,3.50
2018-09-01T13:04:58.187Z,3.87
2018-09-01T13:07:30.585Z,5.10
2018-09-01T13:10:03.284Z,4.47
2018-09-01T13:12:35.715Z,3.87
2018-09-01T13:15:08.168Z,4.40
2018-09-01T13:17:40.781Z,4.50
2018-09-01T13:20:13.347Z,3.60
2018-09-01T13:22:46.504Z,4.07
2018-09-01T13:25:19.353Z,3.50
2018-09-01T13:27:52.060Z,3.83
2018-09-01T13:30:24.535Z,3.67
2018-09-01T13:32:57.097Z,3.60
2018-09-01T13:35:29.911Z,4.10
2018-09-01T13:38:02.614Z,3.47
2018-09-01T13:40:35.355Z,4.07
2018-09-01T13:43:08.248Z,3.70
2018-09-01T13:45:41.184Z,3.60
2018-09-01T13:48:13.899Z,3.80
2018-09-01T13:50:46.502Z,3.67
2018-09-01T13:53:37.449Z,3.40
2018-09-01T13:56:10.663Z,3.63
2018-09-01T13:58:43.575Z,3.30
2018-09-01T14:01:16.241Z,3.70
2018-09-01T14:03:49.095Z,3.53
2018-09-01T14:06:21.925Z,3.70
2018-09-01T14:08:55.926Z,3.83
2018-09-01T14:11:28.623Z,3.67
2018-09-01T14:14:01.538Z,3.50
2018-09-01T14:16:34.203Z,3.87
2018-09-01T14:19:07.060Z,3.60
2018-09-01T14:21:39.850Z,3.60
2018-09-01T14:24:12.817Z,4.23
2018-09-01T14:26:45.620Z,3.43
2018-09-01T14:29:18.649Z,3.53
2018-09-01T14:31:51.680Z,3.53
2018-09-01T14:34:25.372Z,4.00
2018-09-01T14:36:58.522Z,3.67
2018-09-01T14:39:31.082Z,4.10
2018-09-01T14:42:03.841Z,3.90
2018-09-01T14:44:36.277Z,3.90
2018-09-01T14:47:08.985Z,3.90
2018-09-01T14:49:41.433Z,4.23
2018-09-01T14:52:14.465Z,4.00
2018-09-01T14:54:47.214Z,4.07
2018-09-01T14:57:19.683Z,3.83
2018-09-01T14:59:52.475Z,3.63
2018-09-01T15:02:24.995Z,3.60
2018-09-01T15:04:57.906Z,4.13
2018-09-01T15:07:30.880Z,3.43
2018-09-01T15:10:04.033Z,4.10
2018-09-01T15:12:36.867Z,3.70
2018-09-01T15:15:09.404Z,3.63
2018-09-01T15:17:42.345Z,3.40
2018-09-01T15:20:15.589Z,3.90
2018-09-01T15:22:48.091Z,4.10
2018-09-01T15:25:21.828Z,3.00
2018-09-01T15:27:54.815Z,3.40
2018-09-01T15:30:27.280Z,3.57
2018-09-01T15:33:00.059Z,3.47
2018-09-01T15:35:32.982Z,3.30
2018-09-01T15:38:05.694Z,3.10
2018-09-01T15:40:38.167Z,3.70
2018-09-01T15:43:11.770Z,3.20
2018-09-01T15:45:44.614Z,3.10
2018-09-01T15:48:18.770Z,3.20
2018-09-01T15:50:51.907Z,3.10
2018-09-01T15:53:25.019Z,3.03
2018-09-01T15:55:57.680Z,2.80
2018-09-01T15:58:30.665Z,2.97
2018-09-01T16:01:03.202Z,3.57
2018-09-01T16:03:35.917Z,3.30
2018-09-01T16:06:08.550Z,3.10
2018-09-01T16:08:41.043Z,2.90
2018-09-01T16:11:13.426Z,2.90
2018-09-01T16:13:45.820Z,2.87
2018-09-01T16:16:18.330Z,2.70
2018-09-01T16:18:50.874Z,3.30
2018-09-01T16:21:24.759Z,3.30
2018-09-01T16:23:58.620Z,3.30
2018-09-01T16:26:32.751Z,3.43
2018-09-01T16:29:06.642Z,3.23
2018-09-01T16:31:41.751Z,3.30
2018-09-01T16:34:14.768Z,3.33
2018-09-01T16:36:52.615Z,4.00
2018-09-01T16:39:28.977Z,3.50
2018-09-01T16:42:04.226Z,3.90
2018-09-01T16:44:40.523Z,3.70
2018-09-01T16:47:33.130Z,3.70
2018-09-01T16:50:07.938Z,3.40
2018-09-01T16:52:43.511Z,3.27
2018-09-01T16:55:17.682Z,3.50
2018-09-01T16:57:50.865Z,3.70
2018-09-01T17:00:23.662Z,3.13
2018-09-01T17:02:57.282Z,3.10
2018-09-01T17:05:31.275Z,3.33
2018-09-01T17:08:04.826Z,3.33
2018-09-01T17:10:37.698Z,3.90
2018-09-01T17:13:10.947Z,3.40
2018-09-01T17:15:44.288Z,3.30
2018-09-01T17:18:17.059Z,4.30
2018-09-01T17:20:49.908Z,3.67
2018-09-01T17:23:23.013Z,4.17
2018-09-01T17:25:55.719Z,4.37
2018-09-01T17:28:29.496Z,4.20
2018-09-01T17:31:02.715Z,3.97
2018-09-01T17:33:36.623Z,3.90
2018-09-01T17:36:10.293Z,4.00
2018-09-01T17:38:43.878Z,5.27
2018-09-01T17:41:16.951Z,4.87
2018-09-01T17:43:50.111Z,4.10
2018-09-01T17:46:22.912Z,4.07
2018-09-01T17:48:55.929Z,4.60
2018-09-01T17:51:29.457Z,4.50
2018-09-01T17:54:02.382Z,4.87
2018-09-01T17:56:35.012Z,5.07
2018-09-01T17:59:07.693Z,5.00
2018-09-01T18:01:40.228Z,4.80
2018-09-01T18:04:14.365Z,4.70
2018-09-01T18:06:47.155Z,5.67
2018-09-01T18:09:21.635Z,5.40
2018-09-01T18:11:55.154Z,5.43
2018-09-01T18:14:27.842Z,5.20
2018-09-01T18:17:01.066Z,5.23
2018-09-01T18:19:34.757Z,5.67
2018-09-01T18:22:08.927Z,4.70
2018-09-01T18:24:41.542Z,4.63
2018-09-01T18:27:14.173Z,5.00
2018-09-01T18:29:47.059Z,4.80
2018-09-01T18:32:20.165Z,4.70
2018-09-01T18:34:53.091Z,4.97
2018-09-01T18:37:25.801Z,4.40
2018-09-01T18:39:58.780Z,5.00
2018-09-01T18:42:31.551Z,5.63
2018-09-01T18:45:04.668Z,5.13
2018-09-01T18:47:37.783Z,5.20
2018-09-01T18:50:10.913Z,5.40
2018-09-01T18:52:43.607Z,6.80
2018-09-01T18:55:18.302Z,6.70
2018-09-01T18:57:51.572Z,7.30
2018-09-01T19:00:26.900Z,7.47
2018-09-01T19:03:01.389Z,7.33
2018-09-01T19:05:34.424Z,6.67
2018-09-01T19:08:07.021Z,6.57
2018-09-01T19:10:40.388Z,6.00
2018-09-01T19:13:14.829Z,6.93
2018-09-01T19:15:47.448Z,5.87
2018-09-01T19:18:21.991Z,6.10
2018-09-01T19:20:55.521Z,6.27
2018-09-01T19:23:28.842Z,5.67
2018-09-01T19:26:05.935Z,6.83
2018-09-01T19:28:39.535Z,5.30
2018-09-01T19:31:12.803Z,5.60
2018-09-01T19:33:45.461Z,5.20
2018-09-01T19:36:20.848Z,5.77
2018-09-01T19:38:54.397Z,5.67
2018-09-01T19:41:27.467Z,5.80
2018-09-01T19:44:08.081Z,4.93
2018-09-01T19:46:41.875Z,6.43
2018-09-01T19:49:16.301Z,6.33
2018-09-01T19:51:50.885Z,4.90
2018-09-01T19:54:24.410Z,4.33
2018-09-01T19:56:57.551Z,4.60
2018-09-01T19:59:30.946Z,3.53
2018-09-01T20:02:05.211Z,3.83
2018-09-01T20:04:38.801Z,3.23
2018-09-01T20:07:12.924Z,3.30
2018-09-01T20:09:49.325Z,3.97
2018-09-01T20:12:22.828Z,3.67
2018-09-01T20:14:57.021Z,3.60
2018-09-01T20:17:36.441Z,3.50
2018-09-01T20:20:10.003Z,3.73
2018-09-01T20:22:43.791Z,3.57
2018-09-01T20:25:17.324Z,3.80
2018-09-01T20:27:51.451Z,4.13
2018-09-01T20:30:25.509Z,3.30
2018-09-01T20:33:01.850Z,3.40
2018-09-01T20:35:40.862Z,3.10
2018-09-01T20:38:14.822Z,3.53
2018-09-01T20:40:48.726Z,3.77
2018-09-01T20:43:22.164Z,3.47
2018-09-01T20:45:55.612Z,4.50
2018-09-01T20:48:29.611Z,4.37
2018-09-01T20:51:03.715Z,3.40
2018-09-01T20:53:36.603Z,4.30
2018-09-01T20:56:09.060Z,4.33
2018-09-01T20:58:43.582Z,4.07
2018-09-01T21:01:17.013Z,5.23
2018-09-01T21:03:50.347Z,4.87
2018-09-01T21:06:30.909Z,4.47
2018-09-01T21:09:05.107Z,5.67
2018-09-01T21:11:40.384Z,6.70
2018-09-01T21:14:13.014Z,4.50
2018-09-01T21:16:46.594Z,4.83
2018-09-01T21:19:19.409Z,4.67
2018-09-01T21:21:52.191Z,5.00
2018-09-01T21:24:24.906Z,4.60
2018-09-01T21:26:57.976Z,4.57
2018-09-01T21:29:31.160Z,4.20
2018-09-01T21:32:04.015Z,5.20
2018-09-01T21:34:38.406Z,5.03
2018-09-01T21:37:11.399Z,6.33
2018-09-01T21:39:45.041Z,6.40
2018-09-01T21:42:18.203Z,5.90
2018-09-01T21:44:51.077Z,6.07
2018-09-01T21:47:24.167Z,5.73
2018-09-01T21:49:57.606Z,5.73
2018-09-01T21:52:30.628Z,5.97
2018-09-01T21:55:05.392Z,5.60
2018-09-01T21:57:38.297Z,5.70
2018-09-01T22:00:11.386Z,6.77
2018-09-01T22:02:44.454Z,6.03
2018-09-01T22:05:18.607Z,6.37
2018-09-01T22:07:51.410Z,6.10
2018-09-01T22:10:24.943Z,5.90
2018-09-01T22:12:59.990Z,6.20
2018-09-01T22:15:33.145Z,6.30
2018-09-01T22:18:05.741Z,5.90
2018-09-01T22:20:39.477Z,6.73
2018-09-01T22:23:13.465Z,6.60
2018-09-01T22:25:46.770Z,5.80
2018-09-01T22:28:19.506Z,6.17
2018-09-01T22:30:54.051Z,6.33
2018-09-01T22:33:30.073Z,6.37
2018-09-01T22:36:02.678Z,5.47
2018-09-01T22:38:35.560Z,5.40
2018-09-01T22:41:09.057Z,5.73
2018-09-01T22:43:41.900Z,5.67
2018-09-01T22:46:14.593Z,5.27
2018-09-01T22:48:47.648Z,4.80
2018-09-01T22:51:20.480Z,6.33
2018-09-01T22:53:53.151Z,4.67
2018-09-01T22:56:25.888Z,4.83
2018-09-01T22:58:58.374Z,4.40
2018-09-01T23:01:30.992Z,6.07
2018-09-01T23:04:03.582Z,4.70
2018-09-01T23:06:37.506Z,4.80
2018-09-01T23:09:11.210Z,4.10
2018-09-01T23:11:46.359Z,4.03
2018-09-01T23:14:19.285Z,4.00
2018-09-01T23:16:53.294Z,4.07
2018-09-01T23:19:27.378Z,3.73
2018-09-01T23:22:00.499Z,4.00
2018-09-01T23:24:33.113Z,3.50
2018-09-01T23:27:05.889Z,4.20
2018-09-01T23:29:40.007Z,4.53
2018-09-01T23:32:13.400Z,3.87
2018-09-01T23:34:48.608Z,3.40
2018-09-01T23:37:24.899Z,3.90
2018-09-01T23:40:00.670Z,3.53
2018-09-01T23:42:33.691Z,3.87
2018-09-01T23:45:09.306Z,3.17
2018-09-01T23:47:41.970Z,4.47
2018-09-01T23:50:14.741Z,3.93
2018-09-01T23:52:50.440Z,3.70
2018-09-01T23:55:24.041Z,3.77
2018-09-01T23:58:01.618Z,3.90
